Latest Weather Observations for Ballarat

IDV60801

Issued at 8:05 am EST Sunday 31 August 2014 (issued every 30 minutes, with the page automatically refreshed every 10 minutes)

About weather observations | Map of weather stations | Latest weather observations for VIC | Other Formats
Station Details ID: 089002 Name: BALLARAT AERODROME Lat: -37.51 Lon: 143.79 Height: 435.2 m
Data from the previous 72 hours. | See also: Recent months at Ballarat
Date/Time
EST
Temp
°C
App
Temp
°C
Dew
Point
Rel
Hum
%
Delta-T
°C
Wind Press
QNH
hPa
Press
MSL
hPa
Rain
since 9 am
mm
Dir
 
Spd
km/h
Gust
km/h
Spd
kts
Gust
kts
31/08:00am 10.5 5.3 5.5 71 2.3 NNE 22 28 12 15 1019.2 1019.9 0.0
31/07:30am 9.6 3.2 5.4 75 2.0 NNE 28 35 15 19 1019.2 1019.9 0.0
31/07:00am 8.8 3.7 6.1 83 1.3 NNE 22 28 12 15 1019.2 1019.9 0.0
31/06:30am 8.2 3.7 6.3 88 0.9 NNE 19 24 10 13 1019.2 1019.9 0.0
31/06:00am 8.0 3.6 6.6 91 0.7 NNE 19 24 10 13 1019.3 1020.0 0.0
31/05:30am 8.5 3.6 6.8 89 0.8 NNE 22 28 12 15 1019.0 1019.7 0.0
31/05:00am 8.4 4.0 6.5 88 0.9 NNE 19 22 10 12 1019.1 1019.8 0.0
31/04:30am 9.1 4.7 7.2 88 0.9 NNE 20 28 11 15 1018.6 1019.2 0.0
31/04:00am 8.5 4.2 7.0 90 0.7 NNE 19 24 10 13 1018.8 1019.5 0.0
31/03:30am 8.9 4.4 7.0 88 0.9 NNE 20 24 11 13 1019.2 1019.9 0.0
31/03:00am 8.8 4.6 7.3 90 0.7 NNE 19 22 10 12 1019.4 1020.1 0.0
31/02:30am 8.9 5.5 7.7 92 0.6 NNE 15 20 8 11 1019.6 1020.3 0.0
31/02:00am 8.9 5.1 7.4 90 0.7 NNE 17 20 9 11 1019.8 1020.5 0.0
31/01:30am 8.7 4.8 7.2 90 0.7 NNE 17 20 9 11 1019.9 1020.6 0.0
31/01:00am 9.1 4.7 7.5 90 0.8 NNE 20 24 11 13 1020.2 1020.9 0.0
31/12:30am 8.4 4.5 7.2 92 0.6 NNE 17 19 9 10 1020.4 1021.1 0.0
31/12:00am 8.2 4.3 7.1 93 0.5 NNE 17 19 9 10 1020.8 1021.5 0.0
 
Date/Time
EST
Temp
°C
App
Temp
°C
Dew
Point
Rel
Hum
%
Delta-T
°C
Wind Press
QNH
hPa
Press
MSL
hPa
Rain
since 9 am
mm
Dir
 
Spd
km/h
Gust
km/h
Spd
kts
Gust
kts
30/11:30pm 7.2 3.8 6.1 93 0.5 NNE 13 13 7 7 1021.1 1021.8 0.0
30/11:00pm 8.0 4.4 6.8 92 0.6 NNE 15 17 8 9 1021.3 1022.0 0.0
30/10:30pm 8.2 4.5 6.5 89 0.8 NNE 15 17 8 9 1021.6 1022.3 0.0
30/10:00pm 9.1 5.2 7.1 87 1.0 NNE 17 19 9 10 1021.8 1022.5 0.0
30/09:30pm 8.8 5.4 7.6 92 0.6 NE 15 17 8 9 1022.1 1022.8 0.0
30/09:00pm 7.7 5.2 6.6 93 0.5 NNE 9 11 5 6 1022.2 1022.9 0.0
30/08:30pm 7.8 5.2 5.9 88 0.9 NNE 9 9 5 5 1022.2 1022.9 0.0
30/08:00pm 8.5 5.5 6.1 85 1.1 NNE 11 11 6 6 1022.2 1022.9 0.0
30/07:30pm 9.7 6.5 7.0 83 1.3 NNE 13 15 7 8 1022.0 1022.7 0.0
30/07:00pm 10.2 6.7 7.1 81 1.5 NE 15 15 8 8 1021.9 1022.6 0.0
30/06:30pm 11.1 8.0 7.2 77 1.9 NNE 13 17 7 9 1021.8 1022.5 0.0
30/06:00pm 11.9 8.4 7.4 74 2.2 NNE 15 17 8 9 1021.8 1022.5 0.0
30/05:30pm 13.7 10.0 8.1 69 2.8 NNE 17 20 9 11 1021.8 1022.5 0.0
30/05:00pm 14.8 10.9 8.5 66 3.2 N 19 22 10 12 1022.0 1022.7 0.0
30/04:30pm 15.6 12.1 8.8 64 3.6 N 17 24 9 13 1022.0 1022.7 0.0
30/04:00pm 15.9 11.5 8.9 63 3.7 NNE 22 26 12 14 1021.9 1022.6 0.0
30/03:30pm 15.9 11.4 8.6 62 3.8 N 22 28 12 15 1021.9 1022.6 0.0
30/03:00pm 16.3 12.0 9.3 63 3.7 N 22 30 12 16 1022.1 1022.8 0.0
30/02:30pm 15.9 11.1 8.9 63 3.7 N 24 32 13 17 1022.3 1023.0 0.0
30/02:00pm 15.5 10.2 8.3 62 3.7 N 26 33 14 18 1022.6 1023.3 0.0
30/01:30pm 15.2 9.7 7.7 61 3.8 N 26 33 14 18 1023.0 1023.7 0.0
30/01:00pm 15.1 9.3 7.9 62 3.7 N 28 37 15 20 1023.4 1024.1 0.0
30/12:30pm 14.8 8.7 8.1 64 3.4 N 30 37 16 20 1023.8 1024.5 0.0
30/12:00pm 14.9 9.4 9.3 69 2.9 N 28 37 15 20 1024.2 1024.9 0.0
30/11:30am 13.9 8.0 8.9 72 2.6 N 30 37 16 20 1024.5 1025.2 0.0
30/11:00am 13.0 7.4 8.7 75 2.2 N 28 37 15 20 1024.7 1025.5 0.0
30/10:30am 13.4 8.8 9.5 77 2.0 N 24 32 13 17 1024.8 1025.6 0.0
30/10:00am 12.5 7.8 9.1 80 1.7 N 24 30 13 16 1025.0 1025.8 0.0
30/09:30am 11.3 6.1 8.7 84 1.3 N 26 32 14 17 1025.2 1026.0 0.0
30/09:00am 9.9 7.8 9.6 98 0.2 N 11 15 6 8 1025.5 1026.2 0.0
30/08:30am 7.3 5.5 7.3 100 0.0 NNW 6 7 3 4 1025.6 1026.3 0.0
30/08:00am 5.2 3.0 5.2 100 0.0 NNE 6 7 3 4 1025.5 1026.2 0.0
30/07:50am 3.4 2.0 3.3 99 0.0 CALM 0 0 0 0 1025.5 1026.2 0.0
30/07:30am 1.5 -0.3 1.4 99 0.0 CALM 0 0 0 0 1025.3 1026.1 0.0
30/07:18am 1.0 -0.8 0.9 99 0.0 CALM 0 0 0 0 1025.2 1026.0 0.0
30/07:00am 0.7 -1.2 0.6 99 0.0 CALM 0 0 0 0 1025.1 1025.9 0.0
30/06:45am 0.8 -1.1 0.7 99 0.0 CALM 0 0 0 0 1025.1 1025.9 0.0
30/06:39am 1.0 -0.8 0.9 99 0.0 CALM 0 0 0 0 1025.0 1025.8 0.0
30/06:30am 1.3 -0.5 1.2 99 0.0 CALM 0 0 0 0 1025.0 1025.8 0.0
30/06:00am 0.9 -1.0 0.8 99 0.0 CALM 0 0 0 0 1024.7 1025.5 0.0
30/05:30am 0.4 -2.9 0.3 99 0.0 ENE 7 9 4 5 1024.6 1025.4 0.0
30/05:16am 0.4 -3.2 0.3 99 0.0 NE 9 11 5 6 1024.6 1025.4 0.0
30/05:00am 1.1 -1.9 1.0 99 0.0 E 6 7 3 4 1024.6 1025.4 0.0
30/04:30am 1.8 -1.1 1.7 99 0.0 E 6 9 3 5 1024.6 1025.4 0.0
30/04:08am 0.7 -2.6 0.4 98 0.1 E 7 9 4 5 1024.7 1025.5 0.0
30/04:00am 1.2 -1.8 0.9 98 0.1 E 6 7 3 4 1024.7 1025.5 0.0
30/03:30am 5.4 3.2 5.3 99 0.0 SSE 6 9 3 5 1024.9 1025.7 0.0
30/03:27am 5.6 3.3 5.5 99 0.0 SE 7 9 4 5 1024.9 1025.7 0.0
30/03:00am 5.9 3.6 5.8 99 0.0 SE 7 9 4 5 1025.0 1025.8 0.0
30/02:30am 6.0 3.7 5.7 98 0.1 SE 7 11 4 6 1025.2 1026.0 0.0
30/02:00am 6.2 3.6 5.9 98 0.1 E 9 13 5 7 1025.5 1026.2 0.0
30/01:30am 7.0 3.8 6.7 98 0.1 E 13 19 7 10 1025.7 1026.4 0.0
30/01:00am 7.6 3.4 7.3 98 0.1 ESE 19 28 10 15 1025.9 1026.6 0.0
30/12:30am 7.6 2.8 7.3 98 0.1 ESE 22 30 12 16 1025.8 1026.5 0.0
30/12:00am 7.6 2.0 7.3 98 0.1 ESE 26 33 14 18 1026.0 1026.7 0.0
 
Date/Time
EST
Temp
°C
App
Temp
°C
Dew
Point
Rel
Hum
%
Delta-T
°C
Wind Press
QNH
hPa
Press
MSL
hPa
Rain
since 9 am
mm
Dir
 
Spd
km/h
Gust
km/h
Spd
kts
Gust
kts
29/11:30pm 7.5 1.9 7.2 98 0.1 ESE 26 33 14 18 1026.2 1026.9 0.0
29/11:00pm 7.4 2.2 7.1 98 0.1 ESE 24 32 13 17 1026.4 1027.1 0.0
29/10:30pm 7.3 2.0 7.0 98 0.1 SE 24 30 13 16 1026.6 1027.4 0.0
29/10:00pm 7.3 2.0 7.0 98 0.1 SE 24 30 13 16 1026.8 1027.6 0.0
29/09:30pm 7.5 3.1 7.2 98 0.1 ESE 20 28 11 15 1027.0 1027.8 0.0
29/09:00pm 7.3 3.4 7.0 98 0.1 ESE 17 22 9 12 1027.0 1027.8 0.0
29/08:30pm 7.4 3.5 7.1 98 0.1 ESE 17 24 9 13 1027.1 1027.9 0.0
29/08:00pm 7.6 3.4 7.3 98 0.1 SE 19 26 10 14 1027.0 1027.8 0.0
29/07:30pm 8.1 3.8 7.7 97 0.2 ESE 20 28 11 15 1026.9 1027.7 0.0
29/07:00pm 8.8 5.0 7.4 91 0.7 SE 17 22 9 12 1027.1 1027.9 0.0
29/06:30pm 9.2 5.2 6.6 84 1.2 SE 17 22 9 12 1027.0 1027.8 0.0
29/06:00pm 9.8 5.4 6.7 81 1.5 ESE 19 24 10 13 1026.7 1027.5 0.0
29/05:30pm 11.1 6.6 7.0 76 2.0 ESE 20 28 11 15 1026.8 1027.6 0.0
29/05:00pm 12.4 8.3 7.7 73 2.3 ESE 19 24 10 13 1026.6 1027.4 0.0
29/04:30pm 13.5 9.7 7.5 67 3.0 SSE 17 22 9 12 1026.6 1027.4 0.0
29/04:00pm 13.9 9.7 7.4 65 3.2 S 19 24 10 13 1026.5 1027.2 0.0
29/03:30pm 14.3 10.1 7.4 63 3.5 S 19 24 10 13 1026.5 1027.2 0.0
29/03:00pm 14.5 10.0 7.1 61 3.7 S 20 26 11 14 1026.6 1027.4 0.0
29/02:30pm 14.5 10.7 7.5 63 3.5 SE 17 24 9 13 1026.7 1027.5 0.0
29/02:00pm 14.4 10.4 8.4 67 3.1 S 19 24 10 13 1026.8 1027.6 0.0
29/01:30pm 14.6 10.8 9.0 69 2.9 S 19 24 10 13 1027.1 1027.9 0.0
29/01:00pm 14.3 10.5 9.1 71 2.7 S 19 24 10 13 1027.4 1028.2 0.0
29/12:30pm 13.9 10.3 8.3 69 2.9 S 17 22 9 12 1028.0 1028.7 0.0
29/12:00pm 13.1 8.7 6.7 65 3.1 S 19 24 10 13 1028.6 1029.4 0.0
29/11:30am 13.0 8.8 7.5 69 2.7 S 19 26 10 14 1028.8 1029.6 0.0
29/11:00am 12.1 8.1 6.8 70 2.6 SSE 17 20 9 11 1029.0 1029.8 0.0
29/10:30am 11.8 8.0 7.7 76 2.0 S 17 20 9 11 1029.2 1030.0 0.0
29/10:00am 11.0 6.7 6.9 76 2.0 S 19 22 10 12 1029.2 1030.0 0.0
29/09:30am 10.5 7.3 7.0 79 1.7 S 13 17 7 9 1029.2 1030.0 0.0
29/09:00am 9.9 7.4 8.0 88 0.9 S 11 13 6 7 1029.3 1030.1 0.0
29/08:30am 8.8 6.8 8.5 98 0.1 S 9 13 5 7 1029.1 1029.9 0.0
29/08:00am 5.0 3.9 4.9 99 0.0 CALM 0 0 0 0 1028.8 1029.6 0.0
29/07:52am 4.1 2.8 4.0 99 0.0 CALM 0 0 0 0 1028.9 1029.7 0.0
29/07:36am 2.8 1.2 2.7 99 0.0 CALM 0 0 0 0 1028.7 1029.5 0.0
29/07:30am 2.6 1.0 2.5 99 0.0 CALM 0 0 0 0 1028.6 1029.4 0.0
29/07:00am 1.3 -0.5 1.2 99 0.0 CALM 0 0 0 0 1028.4 1029.1 0.0
29/06:30am 1.4 -0.4 1.3 99 0.0 CALM 0 0 0 0 1028.3 1029.0 0.0
29/06:00am 2.3 0.7 2.2 99 0.0 CALM 0 0 0 0 1027.9 1028.6 0.0
29/05:30am 3.0 0.7 2.9 99 0.0 SE 4 7 2 4 1027.6 1028.4 0.0
29/05:00am 3.8 1.1 3.7 99 0.0 ESE 7 9 4 5 1027.5 1028.3 0.0
29/04:30am 3.7 1.2 3.6 99 0.0 ESE 6 9 3 5 1027.7 1028.5 0.0
29/04:00am 4.1 1.5 4.0 99 0.0 SE 7 9 4 5 1027.7 1028.5 0.0
29/03:47am 4.1 1.5 4.0 99 0.0 ESE 7 9 4 5 1027.7 1028.5 0.0
29/03:36am 3.9 1.4 3.8 99 0.0 ESE 6 7 3 4 1027.9 1028.6 0.0
29/03:30am 3.7 1.2 3.6 99 0.0 ESE 6 7 3 4 1028.0 1028.7 0.0
29/03:26am 3.5 0.9 3.4 99 0.0 ESE 6 7 3 4 1028.0 1028.7 0.0
29/03:00am 2.3 -0.5 2.2 99 0.0 ESE 6 7 3 4 1028.1 1028.8 0.0
29/02:42am 2.6 1.0 2.5 99 0.0 CALM 0 0 0 0 1028.2 1028.9 0.0
29/02:30am 2.6 1.0 2.5 99 0.0 CALM 0 0 0 0 1028.2 1028.9 0.0
29/02:09am 3.0 1.5 2.9 99 0.0 CALM 0 0 0 0 1028.4 1029.1 0.0
29/02:00am 3.4 2.0 3.3 99 0.0 CALM 0 0 0 0 1028.4 1029.1 0.0
29/01:30am 4.3 3.0 4.2 99 0.0 CALM 0 0 0 0 1028.5 1029.3 0.0
29/01:08am 4.3 3.0 4.2 99 0.0 CALM 0 0 0 0 1028.5 1029.3 0.0
29/01:00am 5.0 3.9 4.9 99 0.0 CALM 0 0 0 0 1028.4 1029.1 0.0
29/12:30am 5.8 3.7 5.7 99 0.0 S 6 7 3 4 1028.4 1029.1 0.0
29/12:00am 5.2 2.8 5.1 99 0.0 S 7 9 4 5 1028.5 1029.3 0.0
 
Date/Time
EST
Temp
°C
App
Temp
°C
Dew
Point
Rel
Hum
%
Delta-T
°C
Wind Press
QNH
hPa
Press
MSL
hPa
Rain
since 9 am
mm
Dir
 
Spd
km/h
Gust
km/h
Spd
kts
Gust
kts
28/11:30pm 5.7 3.4 5.6 99 0.0 S 7 9 4 5 1028.5 1029.3 0.0
28/11:00pm 6.9 4.8 6.6 98 0.1 S 7 9 4 5 1028.7 1029.5 0.0
28/10:30pm 6.4 4.2 6.1 98 0.1 SE 7 7 4 4 1028.7 1029.5 0.0
28/10:00pm 6.0 3.6 5.1 94 0.4 SE 7 9 4 5 1028.9 1029.7 0.0
28/09:30pm 7.3 5.4 6.6 95 0.3 SSE 6 9 3 5 1028.9 1029.7 0.0
28/09:00pm 8.1 5.9 6.4 89 0.8 SSE 7 7 4 4 1028.9 1029.7 0.0
28/08:30pm 9.3 7.1 6.2 81 1.5 S 7 9 4 5 1028.8 1029.6 0.0
28/08:00pm 9.5 7.3 6.2 80 1.6 SSE 7 9 4 5 1028.5 1029.3 0.0
28/07:30pm 10.9 8.4 6.6 75 2.1 S 9 11 5 6 1028.2 1028.9 0.0
28/07:00pm 11.8 8.9 6.5 70 2.6 SSW 11 13 6 7 1028.0 1028.7 0.0
28/06:30pm 13.2 11.2 6.3 63 3.4 SSW 6 9 3 5 1028.0 1028.7 0.0
28/06:00pm 14.3 11.9 6.9 61 3.7 SW 9 13 5 7 1027.6 1028.4 0.0
28/05:30pm 15.6 13.2 6.9 56 4.4 SW 9 11 5 6 1027.5 1028.3 0.0
28/05:00pm 16.5 13.5 5.8 49 5.3 SW 11 17 6 9 1027.3 1028.1 0.0
28/04:30pm 17.3 14.1 4.9 44 6.1 WSW 11 17 6 9 1027.2 1028.0 0.0
28/04:00pm 17.5 14.1 6.1 47 5.7 WSW 13 19 7 10 1027.1 1027.9 0.0
28/03:30pm 17.9 14.5 6.1 46 5.9 W 13 19 7 10 1027.1 1027.9 0.0
28/03:00pm 17.7 14.0 4.3 41 6.4 W 13 19 7 10 1027.1 1027.9 0.0
28/02:30pm 17.9 15.0 6.4 47 5.8 W 11 17 6 9 1027.1 1027.9 0.0
28/02:00pm 17.4 15.2 8.0 54 4.9 W 9 13 5 7 1027.3 1028.1 0.0
28/01:30pm 16.8 14.1 7.2 53 4.9 W 11 17 6 9 1027.5 1028.3 0.0
28/01:00pm 16.7 13.7 6.2 50 5.2 W 11 17 6 9 1027.9 1028.6 0.0
28/12:30pm 16.7 13.4 4.7 45 5.8 WNW 11 15 6 8 1028.2 1028.9 0.0
28/12:00pm 16.6 13.6 5.9 49 5.3 NW 11 15 6 8 1028.6 1029.4 0.0
28/11:30am 16.4 14.0 5.4 48 5.4 NNW 7 13 4 7 1028.7 1029.5 0.0
28/11:00am 15.9 14.2 7.7 58 4.2 NNW 6 9 3 5 1028.9 1029.7 0.0
28/10:30am 15.5 14.3 9.6 68 3.1 W 6 9 3 5 1029.1 1029.9 0.0
28/10:00am 15.1 13.6 6.9 58 4.1 SE 4 7 2 4 1029.2 1030.0 0.0
28/09:30am 14.4 12.6 7.9 65 3.3 E 7 9 4 5 1029.2 1030.0 0.0
28/09:00am 12.9 10.9 8.6 75 2.2 E 9 11 5 6 1029.1 1029.9 0.0
28/08:30am 11.2 10.4 10.9 98 0.2 SE 6 9 3 5 1029.2 1030.0 0.0
28/08:24am 10.4 10.1 10.2 99 0.1 SE 2 7 1 4 1029.2 1030.0 0.0

Other Formats:

Comma delimited format used in spreadsheet applications
http://www.bom.gov.au/fwo/IDV60801/IDV60801.94852.axf

JavaScript Object Notation format (JSON) in row-major order
http://www.bom.gov.au/fwo/IDV60801/IDV60801.94852.json